createdAt,value
2022-10-18T00:00:47.954Z,5.10
2022-10-18T00:03:14.476Z,5.40
2022-10-18T00:05:41.026Z,5.27
2022-10-18T00:08:07.565Z,6.03
2022-10-18T00:10:34.253Z,4.17
2022-10-18T00:13:00.828Z,4.93
2022-10-18T00:15:27.424Z,6.70
2022-10-18T00:17:53.963Z,6.97
2022-10-18T00:20:20.512Z,7.17
2022-10-18T00:22:47.143Z,6.57
2022-10-18T00:25:14.889Z,5.27
2022-10-18T00:27:41.489Z,4.37
2022-10-18T00:30:08.420Z,3.67
2022-10-18T00:32:41.404Z,4.80
2022-10-18T00:35:08.340Z,4.27
2022-10-18T00:37:35.070Z,4.23
2022-10-18T00:40:01.636Z,3.70
2022-10-18T00:42:30.554Z,3.80
2022-10-18T00:45:16.099Z,2.87
2022-10-18T00:47:43.634Z,4.67
2022-10-18T00:50:10.249Z,3.20
2022-10-18T00:52:37.970Z,3.27
2022-10-18T00:55:05.022Z,3.83
2022-10-18T00:57:31.750Z,2.70
2022-10-18T00:59:58.293Z,2.73
2022-10-18T01:02:25.131Z,4.27
2022-10-18T01:04:51.678Z,3.10
2022-10-18T01:07:41.774Z,3.47
2022-10-18T01:10:08.333Z,3.10
2022-10-18T01:12:53.779Z,4.13
2022-10-18T01:15:27.467Z,3.50
2022-10-18T01:18:00.204Z,4.20
2022-10-18T01:20:45.348Z,4.93
2022-10-18T01:23:20.485Z,3.43
2022-10-18T01:25:50.081Z,4.80
2022-10-18T01:28:36.306Z,3.17
2022-10-18T01:31:06.969Z,3.33
2022-10-18T01:33:33.722Z,3.50
2022-10-18T01:36:03.758Z,3.70
2022-10-18T01:38:30.460Z,3.30
2022-10-18T01:40:56.993Z,5.17
2022-10-18T01:43:23.673Z,4.80
2022-10-18T01:45:50.258Z,5.10
2022-10-18T01:48:16.934Z,6.53
2022-10-18T01:50:43.589Z,3.00
2022-10-18T01:53:26.501Z,4.50
2022-10-18T01:55:55.358Z,7.23
2022-10-18T01:58:24.894Z,3.80
2022-10-18T02:00:53.359Z,2.80
2022-10-18T02:03:23.872Z,2.77
2022-10-18T02:05:52.407Z,3.27
2022-10-18T02:08:31.248Z,3.00
2022-10-18T02:11:01.415Z,4.87
2022-10-18T02:13:30.280Z,5.13
2022-10-18T02:15:58.053Z,2.90
2022-10-18T02:18:25.790Z,2.90
2022-10-18T02:20:52.380Z,3.10
2022-10-18T02:23:20.098Z,4.43
2022-10-18T02:25:46.697Z,4.40
2022-10-18T02:28:13.763Z,3.67
2022-10-18T02:30:59.104Z,4.10
2022-10-18T02:33:28.514Z,5.10
2022-10-18T02:35:57.057Z,2.43
2022-10-18T02:38:23.992Z,3.97
2022-10-18T02:40:50.571Z,4.03
2022-10-18T02:43:17.173Z,2.33
2022-10-18T02:45:43.741Z,2.20
2022-10-18T02:48:10.443Z,2.70
2022-10-18T02:50:37.196Z,3.43
2022-10-18T02:53:04.432Z,4.43
2022-10-18T02:55:30.958Z,2.90
2022-10-18T02:57:57.657Z,5.70
2022-10-18T03:00:24.239Z,2.80
2022-10-18T03:02:50.874Z,3.13
2022-10-18T03:05:17.402Z,2.83
2022-10-18T03:07:44.048Z,4.90
2022-10-18T03:10:10.650Z,4.67
2022-10-18T03:12:37.327Z,5.63
2022-10-18T03:15:04.105Z,3.00
2022-10-18T03:17:30.967Z,4.13
2022-10-18T03:19:57.787Z,3.50
2022-10-18T03:22:25.433Z,4.40
2022-10-18T03:24:52.066Z,2.43
2022-10-18T03:27:18.653Z,4.03
2022-10-18T03:29:45.241Z,3.87
2022-10-18T03:32:11.980Z,4.40
2022-10-18T03:34:38.519Z,6.33
2022-10-18T03:37:06.225Z,2.43
2022-10-18T03:39:33.277Z,2.40
2022-10-18T03:42:00.019Z,3.70
2022-10-18T03:44:26.641Z,5.33
2022-10-18T03:46:53.341Z,4.43
2022-10-18T03:49:20.145Z,5.07
2022-10-18T03:51:46.967Z,25.63
2022-10-18T03:54:13.614Z,3.77
2022-10-18T03:56:40.240Z,3.67
2022-10-18T03:59:06.850Z,3.93
2022-10-18T04:01:33.588Z,5.33
2022-10-18T04:04:00.220Z,7.00
2022-10-18T04:06:26.974Z,3.40
2022-10-18T04:08:54.715Z,3.40
2022-10-18T04:11:21.518Z,3.70
2022-10-18T04:13:48.259Z,8.13
2022-10-18T04:16:14.870Z,4.07
2022-10-18T04:18:41.549Z,2.80
2022-10-18T04:21:08.271Z,3.50
2022-10-18T04:23:37.932Z,4.43
2022-10-18T04:26:05.876Z,6.03
2022-10-18T04:28:38.347Z,5.23
2022-10-18T04:31:05.069Z,6.40
2022-10-18T04:33:31.705Z,7.23
2022-10-18T04:35:58.490Z,4.43
2022-10-18T04:38:25.161Z,5.20
2022-10-18T04:40:51.807Z,4.63
2022-10-18T04:43:18.390Z,5.57
2022-10-18T04:45:45.575Z,6.87
2022-10-18T04:48:12.550Z,6.33
2022-10-18T04:50:39.213Z,7.13
2022-10-18T04:53:13.744Z,4.70
2022-10-18T04:58:27.036Z,5.20
2022-10-18T05:00:53.755Z,5.90
2022-10-18T05:03:22.657Z,5.83
2022-10-18T05:06:01.309Z,9.40
2022-10-18T05:08:29.811Z,6.50
2022-10-18T05:10:56.679Z,4.87
2022-10-18T05:13:23.525Z,5.10
2022-10-18T05:15:50.080Z,7.83
2022-10-18T05:18:16.834Z,10.57
2022-10-18T05:20:43.455Z,6.90
2022-10-18T05:23:10.987Z,5.27
2022-10-18T05:25:41.227Z,9.40
2022-10-18T05:28:10.777Z,8.33
2022-10-18T05:30:47.837Z,4.97
2022-10-18T05:33:14.609Z,9.50
2022-10-18T05:35:41.205Z,7.40
2022-10-18T05:38:08.612Z,8.50
2022-10-18T05:40:37.913Z,8.17
2022-10-18T05:43:04.828Z,5.67
2022-10-18T05:45:31.507Z,9.27
2022-10-18T05:47:58.065Z,4.63
2022-10-18T05:50:24.760Z,6.40
2022-10-18T05:52:51.372Z,8.60
2022-10-18T05:55:18.034Z,6.80
2022-10-18T05:57:48.976Z,9.40
2022-10-18T06:00:15.790Z,9.27
2022-10-18T06:02:42.494Z,8.17
2022-10-18T06:05:09.214Z,12.73
2022-10-18T06:07:35.881Z,14.10
2022-10-18T06:10:02.552Z,11.10
2022-10-18T06:12:29.109Z,10.47
2022-10-18T06:14:55.947Z,9.37
2022-10-18T06:17:22.586Z,9.93
2022-10-18T06:19:49.306Z,8.37
2022-10-18T06:22:16.016Z,6.30
2022-10-18T06:24:42.861Z,12.97
2022-10-18T06:27:09.644Z,9.60
2022-10-18T06:29:36.771Z,6.67
2022-10-18T06:32:03.540Z,9.03
2022-10-18T06:34:30.259Z,8.63
2022-10-18T06:36:58.845Z,7.83
2022-10-18T06:39:25.672Z,9.10
2022-10-18T06:41:52.286Z,9.80
2022-10-18T06:44:19.806Z,8.07
2022-10-18T06:46:46.566Z,9.67
2022-10-18T06:49:16.687Z,9.27
2022-10-18T06:51:46.283Z,10.13
2022-10-18T06:54:17.912Z,6.87
2022-10-18T06:56:45.275Z,9.13
2022-10-18T06:59:11.931Z,5.80
2022-10-18T07:01:38.688Z,10.57
2022-10-18T07:04:05.382Z,10.77
2022-10-18T07:06:32.153Z,7.10
2022-10-18T07:08:59.133Z,6.17
2022-10-18T07:11:26.278Z,8.13
2022-10-18T07:13:55.194Z,5.83
2022-10-18T07:16:21.909Z,8.53
2022-10-18T07:18:51.909Z,7.23
2022-10-18T07:21:19.499Z,6.13
2022-10-18T07:23:46.877Z,8.60
2022-10-18T07:26:14.750Z,9.27
2022-10-18T07:28:42.121Z,7.13
2022-10-18T07:31:09.162Z,10.20
2022-10-18T07:33:35.879Z,7.70
2022-10-18T07:36:03.377Z,8.70
2022-10-18T07:38:29.935Z,6.93
2022-10-18T07:41:00.026Z,8.70
2022-10-18T07:43:26.644Z,10.60
2022-10-18T07:45:53.824Z,9.77
2022-10-18T07:48:20.477Z,9.67
2022-10-18T07:50:47.104Z,8.53
2022-10-18T07:53:13.673Z,7.00
2022-10-18T07:55:40.291Z,8.90
2022-10-18T07:58:06.961Z,7.80
2022-10-18T08:00:33.605Z,7.63
2022-10-18T08:03:03.540Z,7.27
2022-10-18T08:05:30.325Z,11.97
2022-10-18T08:07:57.061Z,5.67
2022-10-18T08:10:24.286Z,6.10
2022-10-18T08:12:51.238Z,5.27
2022-10-18T08:15:18.490Z,6.60
2022-10-18T08:17:45.032Z,6.70
2022-10-18T08:20:19.284Z,5.07
2022-10-18T08:23:00.180Z,7.37
2022-10-18T08:25:27.552Z,12.00
2022-10-18T08:27:54.414Z,6.37
2022-10-18T08:30:20.978Z,7.50
2022-10-18T08:32:47.448Z,7.03
2022-10-18T08:35:13.984Z,8.33
2022-10-18T08:37:40.448Z,9.27
2022-10-18T08:40:07.239Z,8.37
2022-10-18T08:42:38.637Z,7.63
2022-10-18T08:45:12.958Z,9.17
2022-10-18T08:47:52.097Z,9.30
2022-10-18T08:50:19.713Z,8.43
2022-10-18T08:52:55.467Z,12.17
2022-10-18T08:55:23.399Z,9.07
2022-10-18T08:57:50.968Z,7.43
2022-10-18T09:00:18.665Z,4.87
2022-10-18T09:03:03.685Z,5.40
2022-10-18T09:05:33.479Z,8.97
2022-10-18T09:08:09.417Z,5.53
2022-10-18T09:10:51.172Z,5.20
2022-10-18T09:13:17.636Z,7.43
2022-10-18T09:15:59.824Z,6.37
2022-10-18T09:18:45.151Z,7.30
2022-10-18T09:21:17.678Z,5.67
2022-10-18T09:23:44.688Z,8.70
2022-10-18T09:26:15.192Z,5.97
2022-10-18T09:29:00.809Z,6.73
2022-10-18T09:31:30.545Z,7.00
2022-10-18T09:34:02.051Z,6.80
2022-10-18T09:36:37.045Z,8.03
2022-10-18T09:39:16.688Z,5.70
2022-10-18T09:41:43.213Z,5.90
2022-10-18T09:44:10.946Z,6.57
2022-10-18T09:46:38.761Z,5.77
2022-10-18T09:49:06.475Z,7.23
2022-10-18T09:51:39.166Z,5.77
2022-10-18T09:54:05.734Z,4.80
2022-10-18T09:56:41.844Z,5.23
2022-10-18T09:59:38.511Z,7.83
2022-10-18T10:02:05.316Z,6.73
2022-10-18T10:04:31.811Z,5.77
2022-10-18T10:06:59.489Z,5.47
2022-10-18T10:09:37.341Z,5.47
2022-10-18T10:12:03.973Z,4.90
2022-10-18T10:14:44.145Z,7.10
2022-10-18T10:17:24.474Z,7.60
2022-10-18T10:19:59.007Z,9.43
2022-10-18T10:22:32.733Z,7.23
2022-10-18T10:24:59.199Z,5.43
2022-10-18T10:27:31.565Z,7.30
2022-10-18T10:30:02.804Z,7.57
2022-10-18T10:32:44.334Z,7.57
2022-10-18T10:35:33.957Z,6.60
2022-10-18T10:38:10.516Z,4.63
2022-10-18T10:40:41.559Z,6.93
2022-10-18T10:43:36.639Z,6.23
2022-10-18T10:46:05.487Z,6.40
2022-10-18T10:48:33.745Z,6.97
2022-10-18T10:51:01.501Z,6.30
2022-10-18T10:53:33.647Z,6.70
2022-10-18T10:56:00.252Z,6.57
2022-10-18T10:58:26.995Z,7.37
2022-10-18T11:00:53.639Z,8.33
2022-10-18T11:03:29.544Z,7.33
2022-10-18T11:05:57.980Z,7.30
2022-10-18T11:08:25.589Z,6.13
2022-10-18T11:10:58.820Z,6.67
2022-10-18T11:13:31.464Z,6.63
2022-10-18T11:16:04.765Z,8.00
2022-10-18T11:18:34.809Z,4.73
2022-10-18T11:21:02.427Z,6.33
2022-10-18T11:23:31.074Z,7.00
2022-10-18T11:26:03.669Z,4.33
2022-10-18T11:28:36.088Z,4.40
2022-10-18T11:31:06.696Z,6.00
2022-10-18T11:34:07.543Z,7.60
2022-10-18T11:36:35.181Z,7.77
2022-10-18T11:39:06.645Z,9.43
2022-10-18T11:41:41.038Z,5.67
2022-10-18T11:44:13.718Z,6.23
2022-10-18T11:46:56.681Z,5.53
2022-10-18T11:49:44.941Z,8.57
2022-10-18T11:52:24.151Z,7.37
2022-10-18T11:54:53.517Z,7.77
2022-10-18T11:57:26.290Z,9.77
2022-10-18T12:00:12.004Z,5.73
2022-10-18T12:02:38.688Z,9.07
2022-10-18T12:05:22.543Z,5.13
2022-10-18T12:08:02.894Z,10.47
2022-10-18T12:10:44.339Z,6.03
2022-10-18T12:13:18.543Z,5.33
2022-10-18T12:15:45.028Z,9.13
2022-10-18T12:18:13.339Z,7.97
2022-10-18T12:20:49.674Z,7.13
2022-10-18T12:23:17.089Z,6.47
2022-10-18T12:25:45.734Z,6.03
2022-10-18T12:28:30.177Z,10.93
2022-10-18T12:31:37.896Z,7.63
2022-10-18T12:34:09.380Z,11.17
2022-10-18T12:36:54.824Z,5.53
2022-10-18T12:39:45.089Z,6.23
2022-10-18T12:42:25.650Z,7.27
2022-10-18T12:45:05.900Z,6.70
2022-10-18T12:47:32.733Z,7.57
2022-10-18T12:50:00.011Z,6.40
2022-10-18T12:52:28.874Z,7.03
2022-10-18T12:55:01.467Z,5.67
2022-10-18T12:57:28.752Z,3.93
2022-10-18T12:59:55.684Z,5.93
2022-10-18T13:02:23.423Z,8.80
2022-10-18T13:04:50.078Z,7.33
2022-10-18T13:07:18.285Z,7.47
2022-10-18T13:10:03.488Z,5.93
2022-10-18T13:12:30.094Z,8.17
2022-10-18T13:15:24.994Z,8.60
2022-10-18T13:17:53.129Z,6.73
2022-10-18T13:20:27.686Z,8.80
2022-10-18T13:22:54.826Z,7.30
2022-10-18T13:25:22.132Z,7.33
2022-10-18T13:28:01.835Z,6.10
2022-10-18T13:30:28.432Z,8.73
2022-10-18T13:33:13.748Z,7.47
2022-10-18T13:35:44.404Z,9.83
2022-10-18T13:38:29.860Z,6.17
2022-10-18T13:41:03.310Z,9.27
2022-10-18T13:43:52.182Z,10.60
2022-10-18T13:46:19.488Z,9.50
2022-10-18T13:49:00.028Z,9.90
2022-10-18T13:51:26.707Z,9.63
2022-10-18T13:53:59.243Z,7.47
2022-10-18T13:56:26.075Z,11.97
2022-10-18T13:59:13.642Z,9.70
2022-10-18T14:01:49.506Z,10.13
2022-10-18T14:04:28.005Z,11.93
2022-10-18T14:06:58.698Z,11.27
2022-10-18T14:09:44.614Z,8.73
2022-10-18T14:12:14.990Z,6.20
2022-10-18T14:14:45.329Z,6.70
2022-10-18T14:17:27.196Z,7.93
2022-10-18T14:20:04.946Z,6.67
2022-10-18T14:22:34.253Z,9.07
2022-10-18T14:25:01.086Z,9.80
2022-10-18T14:27:28.535Z,9.37
2022-10-18T14:30:29.027Z,8.97
2022-10-18T14:32:56.020Z,10.20
2022-10-18T14:35:38.668Z,11.77
2022-10-18T14:38:05.941Z,11.37
2022-10-18T14:40:38.154Z,10.13
2022-10-18T14:43:12.244Z,8.73
2022-10-18T14:45:39.145Z,11.27
2022-10-18T14:48:08.493Z,8.13
2022-10-18T14:50:35.319Z,7.77
2022-10-18T14:53:06.234Z,6.23
2022-10-18T14:55:33.468Z,13.77
2022-10-18T14:58:00.150Z,9.63
2022-10-18T15:00:29.725Z,7.80
2022-10-18T15:02:56.242Z,11.30
2022-10-18T15:05:23.472Z,12.77
2022-10-18T15:07:50.438Z,8.17
2022-10-18T15:10:23.185Z,11.53
2022-10-18T15:13:08.852Z,7.50
2022-10-18T15:15:36.339Z,9.83
2022-10-18T15:18:05.130Z,9.13
2022-10-18T15:20:35.098Z,10.63
2022-10-18T15:23:20.586Z,10.20
2022-10-18T15:25:47.181Z,8.23
2022-10-18T15:28:30.188Z,8.20
2022-10-18T15:31:01.711Z,8.00
2022-10-18T15:33:33.662Z,11.53
2022-10-18T15:36:10.714Z,11.97
2022-10-18T15:38:37.493Z,12.13
2022-10-18T15:41:24.082Z,7.33
2022-10-18T15:43:50.899Z,8.10
2022-10-18T15:46:31.034Z,9.27
2022-10-18T15:48:58.830Z,9.87
2022-10-18T15:51:44.949Z,10.40
2022-10-18T15:57:06.665Z,11.43
2022-10-18T15:59:33.314Z,8.93
2022-10-18T16:01:59.895Z,13.20
2022-10-18T16:04:32.547Z,12.33
2022-10-18T16:06:59.452Z,13.63
2022-10-18T16:09:26.617Z,10.83
2022-10-18T16:11:56.992Z,11.97
2022-10-18T16:14:24.377Z,8.27
2022-10-18T16:17:03.201Z,10.60
2022-10-18T16:19:30.994Z,11.53
2022-10-18T16:21:59.284Z,11.60
2022-10-18T16:24:28.889Z,16.20
2022-10-18T16:26:58.955Z,14.93
2022-10-18T16:29:26.937Z,10.60
2022-10-18T16:31:57.113Z,11.77
2022-10-18T16:34:23.928Z,11.40
2022-10-18T16:36:50.727Z,16.47
2022-10-18T16:39:17.854Z,29.33
2022-10-18T16:41:44.533Z,15.03
2022-10-18T16:44:11.266Z,26.50
2022-10-18T16:46:38.233Z,34.07
2022-10-18T16:49:05.160Z,31.80
2022-10-18T16:51:31.865Z,17.30
2022-10-18T16:53:58.558Z,19.53
2022-10-18T16:56:26.164Z,18.13
2022-10-18T16:58:52.762Z,10.57
2022-10-18T17:01:20.622Z,13.40
2022-10-18T17:03:47.444Z,13.03
2022-10-18T17:06:15.129Z,13.00
2022-10-18T17:08:41.774Z,9.60
2022-10-18T17:11:09.186Z,11.07
2022-10-18T17:13:35.992Z,10.03
2022-10-18T17:16:05.474Z,10.47
2022-10-18T17:18:32.060Z,10.63
2022-10-18T17:21:01.726Z,12.23
2022-10-18T17:23:28.420Z,10.73
2022-10-18T17:26:06.748Z,11.50
2022-10-18T17:28:42.135Z,10.53
2022-10-18T17:31:08.870Z,8.80
2022-10-18T17:33:35.710Z,9.37
2022-10-18T17:36:02.372Z,11.03
2022-10-18T17:38:28.943Z,27.23
2022-10-18T17:40:55.480Z,10.87
2022-10-18T17:43:22.139Z,8.73
2022-10-18T17:45:49.557Z,16.43
2022-10-18T17:48:16.989Z,9.60
2022-10-18T17:50:43.579Z,11.57
2022-10-18T17:53:12.991Z,12.40
2022-10-18T17:55:39.709Z,14.73
2022-10-18T17:58:06.245Z,15.03
2022-10-18T18:00:32.870Z,16.43
2022-10-18T18:03:02.606Z,12.37
2022-10-18T18:05:32.941Z,14.57
2022-10-18T18:08:03.675Z,11.57
2022-10-18T18:10:34.927Z,9.63
2022-10-18T18:13:01.788Z,12.87
2022-10-18T18:15:31.490Z,13.90
2022-10-18T18:17:58.510Z,11.80
2022-10-18T18:20:25.936Z,14.53
2022-10-18T18:22:52.654Z,18.30
2022-10-18T18:25:20.321Z,11.93
2022-10-18T18:27:48.203Z,13.37
2022-10-18T18:30:18.089Z,16.93
2022-10-18T18:32:44.948Z,15.27
2022-10-18T18:35:11.909Z,13.87
2022-10-18T18:37:38.748Z,15.73
2022-10-18T18:40:05.992Z,13.37
2022-10-18T18:42:33.234Z,13.77
2022-10-18T18:45:00.910Z,13.73
2022-10-18T18:47:28.153Z,18.43
2022-10-18T18:49:57.714Z,15.57
2022-10-18T18:52:25.991Z,18.00
2022-10-18T18:54:53.054Z,18.27
2022-10-18T18:57:19.974Z,17.70
2022-10-18T18:59:47.687Z,14.67
2022-10-18T19:02:14.320Z,10.57
2022-10-18T19:04:42.780Z,16.67
2022-10-18T19:07:11.128Z,12.73
2022-10-18T19:09:39.329Z,12.20
2022-10-18T19:12:07.338Z,13.20
2022-10-18T19:14:36.501Z,15.03
2022-10-18T19:17:08.139Z,13.63
2022-10-18T19:19:41.137Z,10.00
2022-10-18T19:22:12.451Z,14.07
2022-10-18T19:24:40.106Z,17.80
2022-10-18T19:27:11.838Z,11.60
2022-10-18T19:29:38.792Z,10.27
2022-10-18T19:32:07.144Z,17.47
2022-10-18T19:34:54.324Z,11.73
2022-10-18T19:37:21.455Z,13.63
2022-10-18T19:39:48.796Z,11.63
2022-10-18T19:42:18.657Z,10.53
2022-10-18T19:44:49.381Z,12.57
2022-10-18T19:47:16.282Z,13.80
2022-10-18T19:49:44.126Z,10.47
2022-10-18T19:52:12.357Z,12.13
2022-10-18T19:54:39.195Z,11.40
2022-10-18T19:57:07.669Z,15.97
2022-10-18T19:59:36.219Z,14.50
2022-10-18T20:02:04.903Z,10.17
2022-10-18T20:04:34.881Z,10.87
2022-10-18T20:07:02.978Z,14.77
2022-10-18T20:09:29.803Z,11.73
2022-10-18T20:11:56.495Z,17.53
2022-10-18T20:14:23.649Z,15.17
2022-10-18T20:16:54.569Z,9.33
2022-10-18T20:19:21.096Z,13.07
2022-10-18T20:21:47.975Z,12.43
2022-10-18T20:24:14.735Z,13.77
2022-10-18T20:26:43.428Z,15.20
2022-10-18T20:29:10.156Z,15.97
2022-10-18T20:31:38.928Z,8.50
2022-10-18T20:34:07.236Z,11.27
2022-10-18T20:36:33.869Z,18.27
2022-10-18T20:39:00.594Z,12.53
2022-10-18T20:41:28.145Z,17.00
2022-10-18T20:43:55.279Z,12.80
2022-10-18T20:46:22.091Z,12.30
2022-10-18T20:48:49.538Z,9.90
2022-10-18T20:51:19.006Z,11.40
2022-10-18T20:53:45.671Z,10.77
2022-10-18T20:56:15.109Z,14.20
2022-10-18T20:58:43.449Z,13.93
2022-10-18T21:01:10.997Z,10.83
2022-10-18T21:03:38.783Z,14.27
2022-10-18T21:06:09.186Z,14.10
2022-10-18T21:08:35.852Z,9.30
2022-10-18T21:11:03.627Z,9.40
2022-10-18T21:13:31.007Z,13.73
2022-10-18T21:15:57.624Z,11.00
2022-10-18T21:18:27.564Z,9.17
2022-10-18T21:20:54.059Z,12.30
2022-10-18T21:26:04.728Z,11.63
2022-10-18T21:28:31.299Z,9.93
2022-10-18T21:31:12.829Z,8.53
2022-10-18T21:33:40.914Z,8.47
2022-10-18T21:36:07.507Z,9.23
2022-10-18T21:38:34.156Z,8.87
2022-10-18T21:41:00.777Z,13.03
2022-10-18T21:43:27.331Z,9.40
2022-10-18T21:45:58.267Z,6.63
2022-10-18T21:48:25.316Z,8.13
2022-10-18T21:50:51.920Z,10.80
2022-10-18T21:53:18.534Z,10.07
2022-10-18T21:55:45.132Z,8.23
2022-10-18T21:58:11.696Z,10.30
2022-10-18T22:00:38.814Z,8.07
2022-10-18T22:03:06.536Z,10.70
2022-10-18T22:05:33.129Z,9.63
2022-10-18T22:07:59.685Z,6.90
2022-10-18T22:10:26.259Z,8.53
2022-10-18T22:12:52.859Z,9.57
2022-10-18T22:15:19.407Z,8.83
2022-10-18T22:17:46.029Z,9.97
2022-10-18T22:20:12.602Z,12.17
2022-10-18T22:22:39.121Z,8.17
2022-10-18T22:25:05.919Z,8.57
2022-10-18T22:27:32.836Z,9.07
2022-10-18T22:29:59.529Z,8.90
2022-10-18T22:32:26.109Z,6.67
2022-10-18T22:34:52.942Z,4.90
2022-10-18T22:37:19.556Z,9.87
2022-10-18T22:39:46.092Z,7.87
2022-10-18T22:42:12.601Z,7.70
2022-10-18T22:44:39.105Z,7.43
2022-10-18T22:47:05.655Z,5.57
2022-10-18T22:49:32.235Z,7.60
2022-10-18T22:51:58.787Z,4.33
2022-10-18T22:54:25.367Z,5.50
2022-10-18T22:56:52.019Z,6.17
2022-10-18T22:59:18.865Z,7.80
2022-10-18T23:01:45.461Z,5.37
2022-10-18T23:04:11.979Z,6.07
2022-10-18T23:06:39.234Z,9.57
2022-10-18T23:09:06.769Z,9.13
2022-10-18T23:11:33.686Z,4.23
2022-10-18T23:14:00.576Z,6.43
2022-10-18T23:16:29.929Z,5.80
2022-10-18T23:18:56.871Z,8.23
2022-10-18T23:21:24.492Z,5.30
2022-10-18T23:23:51.175Z,4.77
2022-10-18T23:26:18.545Z,6.20
2022-10-18T23:28:45.915Z,6.57
2022-10-18T23:31:13.315Z,3.83
2022-10-18T23:33:40.391Z,9.73
2022-10-18T23:36:07.683Z,4.47
2022-10-18T23:38:34.519Z,5.80
2022-10-18T23:41:01.215Z,6.40
2022-10-18T23:43:27.747Z,8.27
2022-10-18T23:45:54.329Z,6.93
2022-10-18T23:48:20.868Z,7.33
2022-10-18T23:50:47.569Z,5.30
2022-10-18T23:53:14.195Z,6.67
2022-10-18T23:55:48.707Z,10.23
2022-10-18T23:58:15.261Z,5.77
